createdAt,value
2024-03-17T00:00:15.108Z,504.00
2024-03-17T00:01:15.163Z,502.00
2024-03-17T00:02:15.229Z,502.00
2024-03-17T00:03:15.277Z,501.00
2024-03-17T00:04:15.355Z,500.00
2024-03-17T00:05:15.451Z,499.00
2024-03-17T00:06:15.517Z,499.00
2024-03-17T00:07:15.557Z,498.00
2024-03-17T00:08:15.640Z,499.00
2024-03-17T00:09:15.702Z,498.00
2024-03-17T00:10:15.784Z,499.00
2024-03-17T00:11:15.857Z,501.00
2024-03-17T00:12:15.982Z,502.00
2024-03-17T00:13:15.996Z,503.00
2024-03-17T00:14:16.082Z,502.00
2024-03-17T00:15:16.133Z,502.00
2024-03-17T00:16:16.191Z,504.00
2024-03-17T00:17:16.278Z,504.00
2024-03-17T00:18:16.364Z,502.00
2024-03-17T00:19:16.417Z,501.00
2024-03-17T00:20:16.466Z,501.00
2024-03-17T00:21:16.602Z,500.00
2024-03-17T00:22:16.584Z,500.00
2024-03-17T00:23:16.689Z,499.00
2024-03-17T00:24:16.737Z,503.00
2024-03-17T00:25:16.816Z,503.00
2024-03-17T00:26:16.885Z,504.00
2024-03-17T00:27:16.952Z,505.00
2024-03-17T00:28:16.995Z,505.00
2024-03-17T00:29:17.102Z,505.00
2024-03-17T00:30:17.167Z,505.00
2024-03-17T00:31:17.276Z,505.00
2024-03-17T00:32:17.272Z,504.00
2024-03-17T00:33:17.329Z,500.00
2024-03-17T00:34:17.450Z,497.00
2024-03-17T00:35:17.495Z,495.00
2024-03-17T00:36:17.583Z,494.00
2024-03-17T00:37:17.644Z,497.00
2024-03-17T00:38:17.702Z,498.00
2024-03-17T00:39:17.788Z,497.00
2024-03-17T00:40:17.853Z,495.00
2024-03-17T00:41:17.934Z,499.00
2024-03-17T00:42:18.016Z,499.00
2024-03-17T00:43:18.088Z,499.00
2024-03-17T00:44:18.148Z,500.00
2024-03-17T00:45:18.212Z,500.00
2024-03-17T00:46:18.297Z,502.00
2024-03-17T00:47:18.348Z,499.00
2024-03-17T00:48:18.465Z,497.00
2024-03-17T00:49:18.528Z,498.00
2024-03-17T00:50:18.581Z,500.00
2024-03-17T00:51:18.612Z,500.00
2024-03-17T00:52:18.696Z,498.00
2024-03-17T00:53:18.751Z,497.00
2024-03-17T00:54:18.778Z,500.00
2024-03-17T00:55:18.874Z,499.00
2024-03-17T00:56:18.926Z,498.00
2024-03-17T00:57:18.986Z,498.00
2024-03-17T00:58:19.044Z,499.00
2024-03-17T00:59:19.114Z,499.00
2024-03-17T01:00:19.137Z,501.00
2024-03-17T01:01:19.221Z,503.00
2024-03-17T01:02:19.287Z,501.00
2024-03-17T01:03:19.347Z,499.00
2024-03-17T01:04:19.368Z,498.00
2024-03-17T01:05:19.454Z,498.00
2024-03-17T01:06:19.506Z,497.00
2024-03-17T01:07:19.520Z,498.00
2024-03-17T01:08:19.573Z,499.00
2024-03-17T01:09:19.628Z,498.00
2024-03-17T01:10:19.688Z,499.00
2024-03-17T01:11:19.743Z,498.00
2024-03-17T01:12:19.870Z,500.00
2024-03-17T01:13:19.924Z,500.00
2024-03-17T01:14:19.973Z,496.00
2024-03-17T01:15:20.047Z,495.00
2024-03-17T01:16:20.080Z,493.00
2024-03-17T01:17:20.152Z,492.00
2024-03-17T01:18:20.202Z,492.00
2024-03-17T01:19:20.269Z,494.00
2024-03-17T01:20:20.312Z,492.00
2024-03-17T01:21:20.328Z,492.00
2024-03-17T01:22:20.397Z,492.00
2024-03-17T01:23:20.464Z,493.00
2024-03-17T01:24:20.470Z,491.00
2024-03-17T01:25:20.518Z,493.00
2024-03-17T01:26:20.604Z,491.00
2024-03-17T01:27:20.596Z,492.00
2024-03-17T01:28:20.649Z,493.00
2024-03-17T01:29:20.653Z,496.00
2024-03-17T01:30:20.691Z,495.00
2024-03-17T01:31:20.722Z,496.00
2024-03-17T01:32:20.772Z,496.00
2024-03-17T01:33:20.792Z,498.00
2024-03-17T01:34:20.887Z,498.00
2024-03-17T01:35:20.945Z,498.00
2024-03-17T01:36:20.960Z,497.00
2024-03-17T01:37:21.000Z,498.00
2024-03-17T01:38:21.069Z,497.00
2024-03-17T01:39:21.072Z,498.00
2024-03-17T01:40:21.141Z,497.00
2024-03-17T01:41:21.146Z,495.00
2024-03-17T01:42:21.144Z,494.00
2024-03-17T01:43:21.210Z,494.00
2024-03-17T01:44:21.213Z,494.00
2024-03-17T01:45:21.220Z,494.00
2024-03-17T01:46:21.284Z,494.00
2024-03-17T01:47:21.297Z,493.00
2024-03-17T01:48:21.279Z,493.00
2024-03-17T01:49:21.357Z,496.00
2024-03-17T01:50:21.418Z,499.00
2024-03-17T01:51:21.412Z,499.00
2024-03-17T01:52:21.499Z,497.00
2024-03-17T01:53:21.524Z,496.00
2024-03-17T01:54:21.525Z,498.00
2024-03-17T01:55:21.603Z,498.00
2024-03-17T01:56:21.647Z,497.00
2024-03-17T01:57:21.657Z,493.00
2024-03-17T01:58:21.723Z,492.00
2024-03-17T01:59:21.729Z,493.00
2024-03-17T02:00:21.777Z,494.00
2024-03-17T02:01:21.852Z,494.00
2024-03-17T02:02:21.852Z,496.00
2024-03-17T02:03:21.915Z,496.00
2024-03-17T02:04:21.933Z,495.00
2024-03-17T02:05:21.966Z,495.00
2024-03-17T02:06:21.973Z,495.00
2024-03-17T02:07:22.002Z,496.00
2024-03-17T02:08:22.145Z,496.00
2024-03-17T02:09:22.101Z,495.00
2024-03-17T02:10:22.167Z,496.00
2024-03-17T02:11:22.175Z,496.00
2024-03-17T02:12:22.225Z,497.00
2024-03-17T02:13:22.215Z,497.00
2024-03-17T02:14:22.237Z,495.00
2024-03-17T02:15:22.288Z,494.00
2024-03-17T02:16:22.319Z,490.00
2024-03-17T02:17:22.363Z,491.00
2024-03-17T02:18:22.372Z,491.00
2024-03-17T02:19:22.379Z,494.00
2024-03-17T02:20:22.432Z,496.00
2024-03-17T02:21:22.442Z,499.00
2024-03-17T02:22:22.442Z,502.00
2024-03-17T02:23:28.973Z,503.00
2024-03-17T02:24:23.478Z,501.00
2024-03-17T02:25:22.475Z,502.00
2024-03-17T02:26:22.484Z,501.00
2024-03-17T02:27:22.476Z,501.00
2024-03-17T02:28:22.490Z,500.00
2024-03-17T02:29:22.494Z,500.00
2024-03-17T02:30:22.501Z,498.00
2024-03-17T02:31:22.503Z,499.00
2024-03-17T02:32:22.503Z,497.00
2024-03-17T02:33:22.533Z,498.00
2024-03-17T02:34:22.532Z,499.00
2024-03-17T02:35:22.494Z,499.00
2024-03-17T02:36:22.510Z,501.00
2024-03-17T02:37:22.496Z,498.00
2024-03-17T02:38:22.508Z,496.00
2024-03-17T02:39:22.518Z,495.00
2024-03-17T02:40:22.529Z,495.00
2024-03-17T02:41:22.494Z,494.00
2024-03-17T02:42:22.540Z,492.00
2024-03-17T02:43:22.512Z,494.00
2024-03-17T02:44:22.556Z,494.00
2024-03-17T02:45:22.511Z,493.00
2024-03-17T02:46:22.512Z,494.00
2024-03-17T02:47:22.541Z,495.00
2024-03-17T02:48:22.528Z,493.00
2024-03-17T02:49:22.505Z,494.00
2024-03-17T02:50:22.513Z,496.00
2024-03-17T02:51:22.560Z,496.00
2024-03-17T02:52:22.545Z,496.00
2024-03-17T02:53:22.520Z,495.00
2024-03-17T02:54:32.551Z,494.00
2024-03-17T02:55:23.550Z,492.00
2024-03-17T02:56:22.526Z,494.00
2024-03-17T02:57:22.543Z,493.00
2024-03-17T02:58:22.537Z,494.00
2024-03-17T02:59:22.552Z,494.00
2024-03-17T03:00:22.554Z,494.00
2024-03-17T03:01:22.560Z,493.00
2024-03-17T03:02:22.520Z,494.00
2024-03-17T03:03:22.593Z,493.00
2024-03-17T03:04:22.572Z,491.00
2024-03-17T03:05:22.542Z,490.00
2024-03-17T03:06:22.556Z,492.00
2024-03-17T03:07:22.589Z,489.00
2024-03-17T03:08:22.574Z,489.00
2024-03-17T03:09:22.570Z,490.00
2024-03-17T03:10:22.582Z,491.00
2024-03-17T03:11:22.599Z,495.00
2024-03-17T03:12:22.562Z,492.00
2024-03-17T03:13:22.555Z,492.00
2024-03-17T03:14:22.540Z,491.00
2024-03-17T03:15:22.537Z,487.00
2024-03-17T03:16:22.558Z,485.00
2024-03-17T03:17:22.583Z,483.00
2024-03-17T03:18:22.599Z,487.00
2024-03-17T03:19:22.543Z,491.00
2024-03-17T03:20:22.542Z,491.00
2024-03-17T03:21:22.573Z,494.00
2024-03-17T03:22:22.552Z,493.00
2024-03-17T03:23:22.577Z,493.00
2024-03-17T03:24:22.545Z,492.00
2024-03-17T03:25:22.556Z,492.00
2024-03-17T03:26:22.628Z,491.00
2024-03-17T03:27:22.563Z,494.00
2024-03-17T03:28:22.609Z,497.00
2024-03-17T03:29:22.603Z,497.00
2024-03-17T03:30:22.570Z,496.00
2024-03-17T03:31:22.552Z,493.00
2024-03-17T03:32:22.579Z,493.00
2024-03-17T03:33:22.568Z,491.00
2024-03-17T03:34:22.570Z,492.00
2024-03-17T03:35:22.579Z,493.00
2024-03-17T03:36:22.597Z,494.00
2024-03-17T03:37:22.616Z,494.00
2024-03-17T03:38:22.566Z,491.00
2024-03-17T03:39:22.565Z,490.00
2024-03-17T03:40:22.572Z,492.00
2024-03-17T03:41:22.579Z,494.00
2024-03-17T03:42:22.588Z,495.00
2024-03-17T03:43:22.604Z,492.00
2024-03-17T03:44:22.563Z,493.00
2024-03-17T03:45:22.609Z,493.00
2024-03-17T03:46:22.594Z,491.00
2024-03-17T03:47:22.634Z,492.00
2024-03-17T03:48:22.622Z,493.00
2024-03-17T03:49:22.582Z,494.00
2024-03-17T03:50:22.594Z,493.00
2024-03-17T03:51:22.654Z,494.00
2024-03-17T03:52:22.613Z,494.00
2024-03-17T03:53:22.603Z,493.00
2024-03-17T03:54:22.573Z,493.00
2024-03-17T03:55:22.621Z,494.00
2024-03-17T03:56:22.584Z,494.00
2024-03-17T03:57:22.652Z,492.00
2024-03-17T03:58:22.643Z,492.00
2024-03-17T03:59:22.597Z,492.00
2024-03-17T04:00:22.617Z,493.00
2024-03-17T04:01:22.584Z,492.00
2024-03-17T04:02:22.584Z,490.00
2024-03-17T04:03:22.651Z,490.00
2024-03-17T04:04:22.642Z,489.00
2024-03-17T04:05:22.626Z,489.00
2024-03-17T04:06:22.606Z,489.00
2024-03-17T04:07:22.596Z,490.00
2024-03-17T04:08:22.616Z,490.00
2024-03-17T04:09:22.617Z,492.00
2024-03-17T04:10:22.623Z,492.00
2024-03-17T04:11:22.630Z,493.00
2024-03-17T04:12:22.624Z,492.00
2024-03-17T04:13:22.648Z,490.00
2024-03-17T04:14:22.607Z,489.00
2024-03-17T04:15:22.656Z,491.00
2024-03-17T04:16:22.663Z,493.00
2024-03-17T04:17:22.631Z,494.00
2024-03-17T04:18:22.605Z,492.00
2024-03-17T04:19:22.628Z,495.00
2024-03-17T04:20:22.616Z,494.00
2024-03-17T04:21:22.652Z,493.00
2024-03-17T04:22:22.629Z,494.00
2024-03-17T04:23:22.658Z,494.00
2024-03-17T04:24:22.651Z,497.00
2024-03-17T04:25:22.664Z,497.00
2024-03-17T04:26:22.634Z,496.00
2024-03-17T04:27:22.645Z,496.00
2024-03-17T04:28:22.631Z,497.00
2024-03-17T04:29:22.660Z,494.00
2024-03-17T04:30:22.647Z,493.00
2024-03-17T04:31:22.664Z,491.00
2024-03-17T04:32:22.686Z,492.00
2024-03-17T04:33:29.902Z,498.00
2024-03-17T04:34:29.915Z,495.00
2024-03-17T04:35:29.896Z,491.00
2024-03-17T04:36:29.888Z,490.00
2024-03-17T04:37:29.899Z,491.00
2024-03-17T04:38:29.917Z,491.00
2024-03-17T04:39:29.925Z,491.00
2024-03-17T04:40:29.928Z,489.00
2024-03-17T04:41:29.906Z,487.00
2024-03-17T04:42:29.946Z,487.00
2024-03-17T04:43:29.905Z,488.00
2024-03-17T04:44:29.934Z,489.00
2024-03-17T04:45:29.921Z,488.00
2024-03-17T04:46:29.923Z,488.00
2024-03-17T04:47:29.936Z,486.00
2024-03-17T04:48:29.902Z,484.00
2024-03-17T04:49:29.952Z,483.00
2024-03-17T04:50:29.921Z,484.00
2024-03-17T04:51:29.973Z,483.00
2024-03-17T04:52:29.946Z,482.00
2024-03-17T04:53:29.947Z,481.00
2024-03-17T04:54:31.761Z,482.00
2024-03-17T04:55:29.932Z,484.00
2024-03-17T04:56:29.938Z,482.00
2024-03-17T04:57:29.957Z,484.00
2024-03-17T04:58:29.950Z,484.00
2024-03-17T04:59:29.953Z,484.00
2024-03-17T05:00:29.960Z,486.00
2024-03-17T05:01:29.961Z,487.00
2024-03-17T05:02:30.042Z,485.00
2024-03-17T05:03:29.992Z,484.00
2024-03-17T05:04:29.968Z,487.00
2024-03-17T05:05:29.924Z,487.00
2024-03-17T05:06:29.957Z,486.00
2024-03-17T05:07:29.969Z,486.00
2024-03-17T05:08:30.071Z,485.00
2024-03-17T05:09:29.982Z,486.00
2024-03-17T05:10:30.020Z,484.00
2024-03-17T05:11:29.968Z,483.00
2024-03-17T05:12:29.963Z,482.00
2024-03-17T05:13:29.959Z,480.00
2024-03-17T05:14:29.964Z,481.00
2024-03-17T05:15:29.959Z,480.00
2024-03-17T05:16:29.983Z,480.00
2024-03-17T05:17:30.016Z,482.00
2024-03-17T05:18:29.981Z,483.00
2024-03-17T05:19:29.985Z,485.00
2024-03-17T05:20:29.957Z,485.00
2024-03-17T05:21:30.034Z,487.00
2024-03-17T05:22:29.992Z,488.00
2024-03-17T05:23:29.973Z,489.00
2024-03-17T05:24:29.986Z,489.00
2024-03-17T05:25:29.990Z,490.00
2024-03-17T05:26:30.003Z,491.00
2024-03-17T05:27:30.005Z,491.00
2024-03-17T05:28:30.008Z,489.00
2024-03-17T05:29:29.974Z,488.00
2024-03-17T05:30:29.968Z,488.00
2024-03-17T05:31:29.987Z,485.00
2024-03-17T05:32:29.998Z,483.00
2024-03-17T05:33:30.002Z,484.00
2024-03-17T05:34:29.981Z,485.00
2024-03-17T05:35:29.999Z,484.00
2024-03-17T05:36:30.020Z,487.00
2024-03-17T05:37:30.022Z,486.00
2024-03-17T05:38:30.025Z,486.00
2024-03-17T05:39:30.009Z,486.00
2024-03-17T05:40:30.076Z,485.00
2024-03-17T05:41:30.013Z,485.00
2024-03-17T05:42:30.013Z,486.00
2024-03-17T05:43:29.999Z,487.00
2024-03-17T05:44:29.994Z,488.00
2024-03-17T05:45:30.005Z,489.00
2024-03-17T05:46:30.019Z,490.00
2024-03-17T05:47:30.040Z,490.00
2024-03-17T05:48:29.995Z,489.00
2024-03-17T05:49:30.037Z,488.00
2024-03-17T05:50:30.010Z,488.00
2024-03-17T05:51:30.028Z,489.00
2024-03-17T05:52:30.015Z,488.00
2024-03-17T05:53:30.028Z,488.00
2024-03-17T05:54:30.025Z,486.00
2024-03-17T05:55:30.023Z,486.00
2024-03-17T05:56:30.034Z,486.00
2024-03-17T05:57:30.106Z,486.00
2024-03-17T05:58:30.022Z,484.00
2024-03-17T05:59:30.016Z,483.00
2024-03-17T06:00:30.029Z,480.00
2024-03-17T06:01:30.028Z,479.00
2024-03-17T06:02:30.080Z,481.00
2024-03-17T06:03:30.000Z,483.00
2024-03-17T06:04:30.030Z,483.00
2024-03-17T06:05:30.050Z,483.00
2024-03-17T06:06:30.022Z,483.00
2024-03-17T06:07:30.020Z,483.00
2024-03-17T06:08:30.063Z,482.00
2024-03-17T06:09:30.015Z,483.00
2024-03-17T06:10:30.041Z,484.00
2024-03-17T06:11:30.032Z,484.00
2024-03-17T06:12:30.039Z,485.00
2024-03-17T06:13:30.046Z,485.00
2024-03-17T06:14:30.043Z,486.00
2024-03-17T06:15:30.023Z,485.00
2024-03-17T06:16:30.054Z,486.00
2024-03-17T06:17:30.050Z,485.00
2024-03-17T06:18:30.055Z,485.00
2024-03-17T06:19:30.051Z,484.00
2024-03-17T06:20:30.056Z,486.00
2024-03-17T06:21:30.060Z,485.00
2024-03-17T06:22:56.010Z,496.00
2024-03-17T06:23:56.023Z,501.00
2024-03-17T06:24:56.021Z,498.00
2024-03-17T06:25:55.999Z,494.00
2024-03-17T06:26:56.003Z,493.00
2024-03-17T06:27:56.006Z,492.00
2024-03-17T06:28:56.025Z,491.00
2024-03-17T06:29:56.019Z,493.00
2024-03-17T06:30:56.034Z,494.00
2024-03-17T06:31:56.038Z,495.00
2024-03-17T06:32:56.051Z,496.00
2024-03-17T06:33:56.010Z,495.00
2024-03-17T06:34:56.015Z,496.00
2024-03-17T06:35:56.065Z,498.00
2024-03-17T06:36:56.082Z,501.00
2024-03-17T06:37:56.027Z,499.00
2024-03-17T06:38:56.019Z,500.00
2024-03-17T06:39:56.036Z,499.00
2024-03-17T06:40:56.047Z,498.00
2024-03-17T06:41:56.052Z,498.00
2024-03-17T06:42:56.122Z,498.00
2024-03-17T06:43:56.065Z,499.00
2024-03-17T06:44:56.068Z,501.00
2024-03-17T06:45:56.041Z,501.00
2024-03-17T06:46:56.047Z,499.00
2024-03-17T06:47:56.052Z,499.00
2024-03-17T06:48:56.062Z,497.00
2024-03-17T06:49:56.063Z,499.00
2024-03-17T06:50:56.025Z,499.00
2024-03-17T06:51:56.083Z,498.00
2024-03-17T06:52:56.036Z,497.00
2024-03-17T06:53:56.098Z,499.00
2024-03-17T06:54:56.038Z,499.00
2024-03-17T06:55:56.061Z,501.00
2024-03-17T06:56:56.190Z,500.00
2024-03-17T06:57:56.160Z,497.00
2024-03-17T06:58:56.233Z,498.00
2024-03-17T06:59:56.344Z,498.00
2024-03-17T07:00:56.388Z,498.00
2024-03-17T07:01:56.453Z,498.00
2024-03-17T07:02:56.510Z,499.00
2024-03-17T07:03:56.567Z,500.00
2024-03-17T07:04:56.685Z,502.00
2024-03-17T07:05:56.722Z,503.00
2024-03-17T07:06:56.793Z,501.00
2024-03-17T07:07:56.855Z,500.00
2024-03-17T07:08:56.913Z,497.00
2024-03-17T07:09:56.948Z,494.00
2024-03-17T07:10:57.028Z,493.00
2024-03-17T07:11:57.079Z,493.00
2024-03-17T07:12:57.145Z,495.00
2024-03-17T07:13:57.258Z,495.00
2024-03-17T07:14:57.264Z,496.00
2024-03-17T07:15:57.327Z,495.00
2024-03-17T07:16:57.417Z,497.00
2024-03-17T07:17:57.437Z,496.00
2024-03-17T07:18:57.542Z,494.00
2024-03-17T07:19:57.536Z,493.00
2024-03-17T07:20:57.608Z,492.00
2024-03-17T07:21:57.673Z,491.00
2024-03-17T07:22:57.761Z,490.00
2024-03-17T07:23:57.787Z,490.00
2024-03-17T07:24:57.816Z,492.00
2024-03-17T07:25:57.879Z,490.00
2024-03-17T07:26:57.966Z,488.00
2024-03-17T07:27:58.040Z,490.00
2024-03-17T07:28:58.048Z,490.00
2024-03-17T07:29:58.115Z,490.00
2024-03-17T07:30:58.135Z,492.00
2024-03-17T07:31:58.161Z,492.00
2024-03-17T07:32:58.241Z,493.00
2024-03-17T07:33:58.288Z,492.00
2024-03-17T07:34:58.360Z,493.00
2024-03-17T07:35:58.385Z,494.00
2024-03-17T07:36:58.438Z,493.00
2024-03-17T07:37:58.480Z,492.00
2024-03-17T07:38:58.551Z,493.00
2024-03-17T07:39:58.570Z,490.00
2024-03-17T07:40:58.671Z,491.00
2024-03-17T07:41:58.729Z,489.00
2024-03-17T07:42:58.716Z,492.00
2024-03-17T07:43:58.760Z,494.00
2024-03-17T07:44:58.843Z,493.00
2024-03-17T07:45:58.931Z,492.00
2024-03-17T07:46:58.914Z,493.00
2024-03-17T07:47:58.960Z,494.00
2024-03-17T07:48:59.003Z,493.00
2024-03-17T07:49:59.052Z,497.00
2024-03-17T07:50:59.094Z,499.00
2024-03-17T07:51:59.116Z,502.00
2024-03-17T07:52:59.167Z,500.00
2024-03-17T07:53:59.256Z,502.00
2024-03-17T07:54:59.280Z,500.00
2024-03-17T07:55:59.321Z,497.00
2024-03-17T07:56:59.397Z,496.00
2024-03-17T07:57:59.401Z,496.00
2024-03-17T07:58:59.437Z,496.00
2024-03-17T07:59:59.442Z,497.00
2024-03-17T08:00:59.522Z,498.00
2024-03-17T08:01:59.545Z,499.00
2024-03-17T08:02:59.576Z,499.00
2024-03-17T08:03:59.644Z,500.00
2024-03-17T08:04:59.666Z,503.00
2024-03-17T08:05:59.692Z,501.00
2024-03-17T08:06:59.707Z,499.00
2024-03-17T08:07:59.776Z,501.00
2024-03-17T08:08:59.788Z,500.00
2024-03-17T08:09:59.843Z,500.00
2024-03-17T08:10:59.903Z,500.00
2024-03-17T08:11:59.933Z,501.00
2024-03-17T08:13:00.045Z,503.00
2024-03-17T08:13:59.999Z,501.00
2024-03-17T08:15:00.036Z,500.00
2024-03-17T08:16:00.189Z,500.00
2024-03-17T08:17:00.109Z,502.00
2024-03-17T08:18:00.196Z,502.00
2024-03-17T08:19:00.188Z,504.00
2024-03-17T08:20:00.226Z,504.00
2024-03-17T08:21:00.272Z,506.00
2024-03-17T08:22:00.289Z,508.00
2024-03-17T08:23:00.299Z,510.00
2024-03-17T08:24:00.363Z,509.00
2024-03-17T08:25:00.366Z,507.00
2024-03-17T08:26:00.410Z,504.00
2024-03-17T08:27:00.463Z,505.00
2024-03-17T08:28:00.498Z,507.00
2024-03-17T08:29:00.493Z,508.00
2024-03-17T08:30:00.555Z,507.00
2024-03-17T08:31:00.601Z,505.00
2024-03-17T08:32:00.599Z,504.00
2024-03-17T08:33:00.676Z,504.00
2024-03-17T08:34:00.675Z,506.00
2024-03-17T08:35:00.730Z,505.00
2024-03-17T08:36:00.721Z,508.00
2024-03-17T08:37:00.793Z,511.00
2024-03-17T08:38:00.815Z,509.00
2024-03-17T08:39:00.865Z,506.00
2024-03-17T08:40:00.853Z,506.00
2024-03-17T08:41:00.901Z,508.00
2024-03-17T08:42:00.925Z,505.00
2024-03-17T08:43:00.946Z,502.00
2024-03-17T08:44:00.986Z,500.00
2024-03-17T08:45:01.871Z,501.00
2024-03-17T08:46:01.053Z,499.00
2024-03-17T08:47:01.123Z,499.00
2024-03-17T08:48:01.105Z,503.00
2024-03-17T08:49:01.194Z,504.00
2024-03-17T08:50:01.200Z,504.00
2024-03-17T08:51:01.232Z,506.00
2024-03-17T08:52:01.244Z,507.00
2024-03-17T08:53:01.308Z,508.00
2024-03-17T08:54:01.286Z,507.00
2024-03-17T08:55:01.369Z,506.00
2024-03-17T08:56:01.416Z,507.00
2024-03-17T08:57:01.389Z,507.00
2024-03-17T08:58:01.418Z,508.00
2024-03-17T08:59:01.462Z,506.00
2024-03-17T09:00:01.513Z,502.00
2024-03-17T09:01:01.522Z,504.00
2024-03-17T09:02:01.624Z,502.00
2024-03-17T09:03:01.558Z,501.00
2024-03-17T09:04:01.655Z,501.00
2024-03-17T09:05:01.661Z,499.00
2024-03-17T09:06:01.680Z,500.00
2024-03-17T09:07:01.722Z,500.00
2024-03-17T09:08:01.721Z,505.00
2024-03-17T09:09:01.769Z,510.00
2024-03-17T09:10:01.894Z,506.00
2024-03-17T09:11:01.856Z,507.00
2024-03-17T09:12:01.869Z,508.00
2024-03-17T09:13:01.894Z,508.00
2024-03-17T09:14:01.901Z,512.00
2024-03-17T09:15:01.954Z,514.00
2024-03-17T09:16:01.992Z,514.00
2024-03-17T09:17:02.034Z,515.00
2024-03-17T09:18:02.063Z,518.00
2024-03-17T09:19:02.080Z,518.00
2024-03-17T09:20:02.119Z,516.00
2024-03-17T09:21:02.203Z,513.00
2024-03-17T09:22:02.194Z,512.00
2024-03-17T09:23:02.215Z,512.00
2024-03-17T09:24:02.243Z,513.00
2024-03-17T09:25:02.267Z,510.00
2024-03-17T09:26:02.288Z,507.00
2024-03-17T09:27:02.334Z,506.00
2024-03-17T09:28:02.341Z,507.00
2024-03-17T09:29:02.386Z,507.00
2024-03-17T09:30:02.457Z,509.00
2024-03-17T09:31:02.424Z,510.00
2024-03-17T09:32:02.501Z,507.00
2024-03-17T09:33:02.517Z,508.00
2024-03-17T09:34:02.520Z,504.00
2024-03-17T09:35:02.590Z,502.00
2024-03-17T09:36:02.591Z,504.00
2024-03-17T09:37:02.602Z,503.00
2024-03-17T09:38:02.655Z,504.00
2024-03-17T09:39:02.693Z,505.00
2024-03-17T09:40:02.729Z,510.00
2024-03-17T09:41:02.745Z,510.00
2024-03-17T09:42:02.774Z,509.00
2024-03-17T09:43:03.597Z,512.00
2024-03-17T09:44:02.832Z,512.00
2024-03-17T09:45:02.974Z,511.00
2024-03-17T09:46:02.926Z,511.00
2024-03-17T09:47:02.979Z,509.00
2024-03-17T09:48:02.991Z,508.00
2024-03-17T09:49:03.011Z,507.00
2024-03-17T09:50:03.066Z,506.00
2024-03-17T09:51:03.072Z,506.00
2024-03-17T09:52:03.120Z,506.00
2024-03-17T09:53:03.169Z,507.00
2024-03-17T09:54:03.176Z,507.00
2024-03-17T09:55:03.211Z,507.00
2024-03-17T09:56:03.242Z,506.00
2024-03-17T09:57:03.246Z,504.00
2024-03-17T09:58:03.300Z,505.00
2024-03-17T09:59:03.328Z,504.00
2024-03-17T10:00:03.354Z,504.00
2024-03-17T10:01:03.433Z,507.00
2024-03-17T10:02:03.459Z,508.00
2024-03-17T10:03:03.471Z,510.00
2024-03-17T10:04:03.523Z,509.00
2024-03-17T10:05:03.520Z,507.00
2024-03-17T10:06:03.565Z,508.00
2024-03-17T10:07:03.622Z,513.00
2024-03-17T10:08:03.684Z,512.00
2024-03-17T10:09:03.691Z,511.00
2024-03-17T10:10:03.745Z,510.00
2024-03-17T10:11:03.818Z,509.00
2024-03-17T10:12:03.833Z,509.00
2024-03-17T10:13:03.823Z,506.00
2024-03-17T10:14:03.883Z,506.00
2024-03-17T10:15:03.870Z,505.00
2024-03-17T10:16:03.939Z,506.00
2024-03-17T10:17:03.942Z,508.00
2024-03-17T10:18:04.001Z,507.00
2024-03-17T10:19:04.108Z,509.00
2024-03-17T10:20:04.092Z,505.00
2024-03-17T10:21:04.126Z,505.00
2024-03-17T10:22:04.143Z,502.00
2024-03-17T10:23:04.200Z,504.00
2024-03-17T10:24:04.204Z,501.00
2024-03-17T10:25:04.253Z,504.00
2024-03-17T10:26:04.278Z,505.00
2024-03-17T10:27:04.349Z,506.00
2024-03-17T10:28:04.382Z,505.00
2024-03-17T10:29:04.488Z,507.00
2024-03-17T10:30:04.481Z,507.00
2024-03-17T10:31:04.465Z,507.00
2024-03-17T10:32:04.508Z,507.00
2024-03-17T10:33:04.599Z,508.00
2024-03-17T10:34:11.562Z,510.00
2024-03-17T10:35:05.607Z,512.00
2024-03-17T10:36:04.553Z,513.00
2024-03-17T10:37:04.547Z,510.00
2024-03-17T10:38:04.610Z,511.00
2024-03-17T10:39:04.575Z,509.00
2024-03-17T10:40:04.631Z,509.00
2024-03-17T10:41:04.588Z,508.00
2024-03-17T10:42:04.608Z,507.00
2024-03-17T10:43:04.578Z,509.00
2024-03-17T10:44:06.050Z,512.00
2024-03-17T10:45:04.601Z,514.00
2024-03-17T10:46:04.596Z,514.00
2024-03-17T10:47:04.588Z,517.00
2024-03-17T10:48:04.615Z,513.00
2024-03-17T10:49:04.628Z,512.00
2024-03-17T10:50:06.025Z,509.00
2024-03-17T10:51:04.694Z,506.00
2024-03-17T10:52:04.747Z,503.00
2024-03-17T10:53:04.809Z,505.00
2024-03-17T10:54:04.826Z,502.00
2024-03-17T10:55:04.853Z,499.00
2024-03-17T10:56:05.931Z,500.00
2024-03-17T10:57:04.899Z,498.00
2024-03-17T10:58:04.950Z,496.00
2024-03-17T10:59:05.011Z,497.00
2024-03-17T11:00:05.065Z,497.00
2024-03-17T11:01:05.086Z,500.00
2024-03-17T11:02:05.131Z,503.00
2024-03-17T11:03:05.195Z,506.00
2024-03-17T11:04:05.198Z,505.00
2024-03-17T11:05:05.242Z,508.00
2024-03-17T11:06:05.306Z,507.00
2024-03-17T11:07:05.317Z,508.00
2024-03-17T11:08:06.249Z,507.00
2024-03-17T11:09:05.404Z,506.00
2024-03-17T11:10:05.440Z,506.00
2024-03-17T11:11:05.447Z,509.00
2024-03-17T11:12:05.504Z,510.00
2024-03-17T11:13:05.574Z,512.00
2024-03-17T11:14:05.572Z,512.00
2024-03-17T11:15:05.631Z,512.00
2024-03-17T11:16:05.636Z,510.00
2024-03-17T11:17:05.704Z,512.00
2024-03-17T11:18:05.738Z,511.00
2024-03-17T11:19:05.768Z,511.00
2024-03-17T11:20:05.824Z,510.00
2024-03-17T11:21:05.829Z,511.00
2024-03-17T11:22:05.876Z,512.00
2024-03-17T11:23:05.940Z,511.00
2024-03-17T11:24:05.962Z,511.00
2024-03-17T11:25:05.952Z,510.00
2024-03-17T11:26:06.010Z,511.00
2024-03-17T11:27:05.998Z,507.00
2024-03-17T11:28:06.062Z,502.00
2024-03-17T11:29:06.095Z,506.00
2024-03-17T11:30:06.111Z,503.00
2024-03-17T11:31:06.216Z,503.00
2024-03-17T11:32:06.228Z,502.00
2024-03-17T11:33:06.177Z,502.00
2024-03-17T11:34:06.217Z,503.00
2024-03-17T11:35:06.279Z,505.00
2024-03-17T11:36:06.356Z,503.00
2024-03-17T11:37:06.358Z,502.00
2024-03-17T11:38:06.913Z,502.00
2024-03-17T11:39:06.398Z,503.00
2024-03-17T11:40:06.529Z,503.00
2024-03-17T11:41:06.468Z,503.00
2024-03-17T11:42:06.487Z,504.00
2024-03-17T11:43:06.496Z,504.00
2024-03-17T11:44:06.530Z,505.00
2024-03-17T11:45:06.600Z,506.00
2024-03-17T11:46:06.616Z,505.00
2024-03-17T11:47:09.392Z,506.00
2024-03-17T11:48:06.677Z,507.00
2024-03-17T11:49:06.644Z,508.00
2024-03-17T11:51:06.643Z,508.00
2024-03-17T11:52:06.665Z,507.00
2024-03-17T11:53:06.666Z,508.00
2024-03-17T11:54:06.659Z,511.00
2024-03-17T11:55:06.673Z,511.00
2024-03-17T11:56:07.740Z,510.00
2024-03-17T11:57:06.635Z,505.00
2024-03-17T11:58:06.664Z,504.00
2024-03-17T11:59:06.648Z,505.00
2024-03-17T12:00:06.716Z,504.00
2024-03-17T12:01:06.662Z,504.00
2024-03-17T12:02:07.700Z,506.00
2024-03-17T12:03:06.653Z,506.00
2024-03-17T12:04:06.709Z,508.00
2024-03-17T12:05:06.684Z,502.00
2024-03-17T12:06:06.692Z,500.00
2024-03-17T12:07:06.694Z,499.00
2024-03-17T12:08:06.671Z,501.00
2024-03-17T12:09:06.673Z,502.00
2024-03-17T12:10:06.672Z,502.00
2024-03-17T12:11:06.668Z,507.00
2024-03-17T12:12:06.713Z,508.00
2024-03-17T12:13:06.731Z,507.00
2024-03-17T12:14:08.199Z,508.00
2024-03-17T12:15:06.787Z,508.00
2024-03-17T12:16:06.823Z,506.00
2024-03-17T12:17:06.859Z,504.00
2024-03-17T12:18:06.917Z,508.00
2024-03-17T12:19:06.880Z,510.00
2024-03-17T12:20:07.984Z,511.00
2024-03-17T12:21:06.945Z,510.00
2024-03-17T12:22:06.996Z,510.00
2024-03-17T12:23:07.006Z,515.00
2024-03-17T12:24:07.069Z,513.00
2024-03-17T12:25:07.115Z,513.00
2024-03-17T12:26:07.095Z,513.00
2024-03-17T12:27:07.109Z,511.00
2024-03-17T12:28:07.151Z,511.00
2024-03-17T12:29:07.162Z,510.00
2024-03-17T12:30:07.209Z,509.00